Time;durP1;ratioP1;P1;durP2;ratioP2;P2;SDS_P1;SDS_P2;PMS_P1;PMS_P2;Temp;Humidity;BMP_temperature;BMP_pressure;BME280_temperature;BME280_humidity;BME280_pressure;Samples;Min_cycle;Max_cycle;Signal;HPM_P1;HPM_P2
2021/03/14 00:01:39;;;;;;;5.22;4.78;;;;;;;3.55;40.55;99099.50;4987068;28;98794;-75
2021/03/14 00:04:06;;;;;;;6.22;5.47;;;;;;;3.54;40.60;99100.38;4974369;28;97769;-74
2021/03/14 00:06:33;;;;;;;5.70;5.30;;;;;;;3.55;41.11;99086.38;4970266;28;97398;-75
2021/03/14 00:09:00;;;;;;;4.95;4.75;;;;;;;3.58;40.59;99078.56;5018407;28;98276;-75
2021/03/14 00:11:28;;;;;;;5.57;5.13;;;;;;;3.61;40.54;99094.41;4963348;28;97297;-74
2021/03/14 00:13:55;;;;;;;5.30;4.88;;;;;;;3.61;40.54;99096.13;4973872;28;97208;-74
2021/03/14 00:16:22;;;;;;;6.10;5.50;;;;;;;3.62;40.40;99097.94;4974526;28;97491;-75
2021/03/14 00:18:50;;;;;;;5.57;5.07;;;;;;;3.66;40.35;99100.66;5010541;27;99299;-75
2021/03/14 00:21:19;;;;;;;6.10;5.50;;;;;;;3.63;40.60;99113.72;4976137;28;97851;-74
2021/03/14 00:23:46;;;;;;;6.75;6.10;;;;;;;3.62;40.71;99129.50;4974786;28;97615;-74
2021/03/14 00:26:15;;;;;;;5.75;5.40;;;;;;;3.65;40.43;99141.00;4988220;28;97237;-74
2021/03/14 00:28:42;;;;;;;6.07;5.50;;;;;;;3.67;40.28;99113.00;5005689;27;99760;-74
2021/03/14 00:31:10;;;;;;;6.82;6.22;;;;;;;3.69;40.77;99124.44;5008256;27;97465;-74
2021/03/14 00:33:37;;;;;;;6.35;5.78;;;;;;;3.72;40.43;99124.50;4972266;28;97145;-75
2021/03/14 00:36:06;;;;;;;7.70;5.88;;;;;;;3.69;40.28;99123.53;4972718;28;96770;-74
2021/03/14 00:38:32;;;;;;;6.35;5.90;;;;;;;3.72;40.20;99157.78;4973118;28;97781;-74
2021/03/14 00:40:59;;;;;;;7.05;6.10;;;;;;;3.74;40.16;99129.78;5005980;27;98051;-75
2021/03/14 00:43:27;;;;;;;6.13;5.82;;;;;;;3.78;39.92;99137.78;5005873;28;96923;-75
2021/03/14 00:45:54;;;;;;;6.95;5.57;;;;;;;3.76;40.43;99135.97;4992856;28;97278;-74
2021/03/14 00:48:37;;;;;;;7.13;6.28;;;;;;;3.78;40.52;99160.56;4990639;28;99496;-74
2021/03/14 00:51:06;;;;;;;6.07;5.53;;;;;;;3.77;40.19;99159.66;4975278;28;97858;-74
2021/03/14 00:53:39;;;;;;;5.90;5.40;;;;;;;3.78;40.51;99153.56;4992215;28;97062;-74
2021/03/14 00:56:12;;;;;;;7.07;6.65;;;;;;;3.77;40.52;99137.75;4974775;28;96861;-74
2021/03/14 00:58:40;;;;;;;6.22;5.93;;;;;;;3.76;40.44;99157.91;4989536;28;99574;-74
2021/03/14 01:01:08;;;;;;;5.28;4.97;;;;;;;3.79;40.49;99164.94;4951570;28;98498;-72
2021/03/14 01:03:40;;;;;;;5.57;5.28;;;;;;;3.80;40.48;99172.91;4974197;28;98064;-72
2021/03/14 01:06:06;;;;;;;5.88;5.40;;;;;;;3.79;40.57;99151.81;5000882;28;97368;-72
2021/03/14 01:08:34;;;;;;;6.13;5.63;;;;;;;3.78;40.38;99171.97;4949708;28;99131;-75
2021/03/14 01:11:02;;;;;;;7.43;6.75;;;;;;;3.77;40.19;99154.41;4990883;28;98370;-75
2021/03/14 01:13:47;;;;;;;5.97;5.57;;;;;;;3.81;40.03;99151.00;4975980;28;96763;-72
2021/03/14 01:16:17;;;;;;;11.20;6.30;;;;;;;3.92;40.06;99169.63;4989949;28;97296;-73
2021/03/14 01:18:55;;;;;;;6.43;5.93;;;;;;;3.94;40.29;99163.56;5009650;27;97702;-72
2021/03/14 01:21:22;;;;;;;7.00;6.30;;;;;;;3.93;40.04;99190.72;4988407;28;99519;-72
2021/03/14 01:23:49;;;;;;;5.70;5.22;;;;;;;3.90;40.05;99198.56;4976113;28;96929;-73
2021/03/14 01:26:15;;;;;;;7.35;5.80;;;;;;;3.93;40.35;99174.94;4991241;28;97485;-73
2021/03/14 01:28:43;;;;;;;6.13;5.65;;;;;;;3.93;39.90;99166.16;4958342;28;99668;-73
2021/03/14 01:31:09;;;;;;;5.82;5.32;;;;;;;3.97;40.20;99195.19;4976698;28;97214;-73
2021/03/14 01:33:36;;;;;;;6.60;6.00;;;;;;;3.99;40.25;99188.22;4955293;28;97400;-74
2021/03/14 01:36:06;;;;;;;6.72;6.10;;;;;;;3.98;40.25;99193.47;4977951;28;97399;-74
2021/03/14 01:38:34;;;;;;;5.55;5.05;;;;;;;3.95;40.00;99196.91;4973607;28;97032;-73
2021/03/14 01:41:02;;;;;;;6.47;5.88;;;;;;;3.89;40.08;99186.25;4971414;28;98761;-74
2021/03/14 01:43:35;;;;;;;6.45;5.90;;;;;;;3.94;39.94;99178.44;4975629;28;96865;-74
2021/03/14 01:46:03;;;;;;;6.72;5.82;;;;;;;3.98;40.36;99197.00;4974819;28;97446;-74
2021/03/14 01:48:32;;;;;;;6.53;5.82;;;;;;;3.92;40.32;99195.94;4974398;28;99136;-74
2021/03/14 01:50:59;;;;;;;7.78;5.70;;;;;;;3.95;40.29;99194.28;4987076;28;97749;-74
2021/03/14 01:53:27;;;;;;;5.72;5.25;;;;;;;3.94;40.65;99200.41;4976456;28;96688;-74
2021/03/14 01:55:55;;;;;;;5.80;5.30;;;;;;;3.92;40.19;99196.84;5008140;28;96839;-74
2021/03/14 01:58:23;;;;;;;6.22;5.72;;;;;;;3.96;40.44;99211.84;4973591;28;97993;-74
2021/03/14 02:01:08;;;;;;;7.20;6.00;;;;;;;3.91;40.31;99200.34;4986656;28;96980;-74
2021/03/14 02:03:36;;;;;;;6.15;5.65;;;;;;;3.95;40.51;99206.56;4956477;28;96782;-74
2021/03/14 02:06:05;;;;;;;6.60;6.07;;;;;;;3.94;40.23;99226.72;4957437;28;97048;-73
2021/03/14 02:08:32;;;;;;;6.10;5.70;;;;;;;3.95;40.22;99199.53;4972882;28;97148;-74
2021/03/14 02:11:00;;;;;;;9.55;5.82;;;;;;;3.96;40.20;99216.22;4973587;28;97331;-73
2021/03/14 02:13:31;;;;;;;7.45;5.80;;;;;;;3.98;40.25;99212.78;5007385;28;97227;-73
2021/03/14 02:16:02;;;;;;;7.60;6.88;;;;;;;3.93;41.13;99230.19;4976777;28;96885;-73
2021/03/14 02:18:30;;;;;;;7.72;6.40;;;;;;;3.96;40.87;99219.75;4988866;28;98701;-73
2021/03/14 02:20:57;;;;;;;7.03;6.53;;;;;;;4.00;40.62;99237.38;4974644;28;97870;-73
2021/03/14 02:23:31;;;;;;;8.20;6.72;;;;;;;4.02;40.38;99219.84;4971321;28;96804;-73
2021/03/14 02:26:05;;;;;;;6.28;5.70;;;;;;;4.03;40.26;99229.56;5004223;28;96905;-73
2021/03/14 02:28:34;;;;;;;6.20;5.75;;;;;;;4.07;40.48;99226.13;4956054;28;99658;-73
2021/03/14 02:31:01;;;;;;;6.97;6.28;;;;;;;4.09;40.15;99229.69;4957616;28;98517;-73
2021/03/14 02:33:31;;;;;;;7.22;6.30;;;;;;;4.13;40.42;99239.41;4976026;28;96812;-73
2021/03/14 02:35:58;;;;;;;6.70;6.00;;;;;;;4.02;42.13;99240.06;4955965;28;96879;-73
2021/03/14 02:38:26;;;;;;;6.10;5.68;;;;;;;4.06;41.65;99247.16;5004993;28;97246;-72
2021/03/14 02:40:55;;;;;;;5.80;5.40;;;;;;;4.11;40.60;99243.78;5007126;28;98750;-73
2021/03/14 02:43:23;;;;;;;6.38;5.78;;;;;;;4.14;40.57;99251.75;4955702;28;97773;-73
2021/03/14 02:45:51;;;;;;;5.95;5.55;;;;;;;4.11;40.71;99249.03;4959612;28;97440;-73
2021/03/14 02:48:19;;;;;;;6.10;5.57;;;;;;;4.14;40.97;99264.00;4974374;28;97761;-72
2021/03/14 02:50:47;;;;;;;6.28;5.70;;;;;;;4.10;40.84;99275.31;4990175;28;99377;-73
2021/03/14 02:53:15;;;;;;;6.72;6.13;;;;;;;4.08;40.95;99272.66;4974548;28;97887;-73
2021/03/14 02:55:42;;;;;;;6.13;5.68;;;;;;;4.09;40.77;99284.06;4972173;28;97163;-73
2021/03/14 02:58:10;;;;;;;6.80;6.20;;;;;;;4.15;41.29;99285.09;5006019;28;97440;-72
2021/03/14 03:00:38;;;;;;;6.93;6.20;;;;;;;4.16;40.63;99284.25;4967792;28;98751;-72
2021/03/14 03:03:06;;;;;;;6.55;6.05;;;;;;;4.20;40.92;99293.09;5003706;28;97357;-72
2021/03/14 03:05:34;;;;;;;6.90;6.30;;;;;;;4.19;40.80;99313.25;4971856;28;97858;-72
2021/03/14 03:08:03;;;;;;;8.07;6.40;;;;;;;4.11;41.36;99320.09;4973296;28;98475;-73
2021/03/14 03:10:34;;;;;;;12.18;5.90;;;;;;;4.10;41.50;99306.88;4971282;28;98666;-73
2021/03/14 03:13:02;;;;;;;5.43;5.03;;;;;;;4.10;41.04;99309.53;4959401;28;97135;-73
2021/03/14 03:15:30;;;;;;;6.18;4.97;;;;;;;4.07;41.16;99328.78;4972760;28;97405;-73
2021/03/14 03:17:58;;;;;;;5.72;5.32;;;;;;;4.02;41.56;99330.38;4991033;28;99442;-72
2021/03/14 03:20:26;;;;;;;6.07;5.60;;;;;;;3.93;41.66;99335.44;4976090;28;97221;-72
2021/03/14 03:22:54;;;;;;;6.38;5.78;;;;;;;3.81;41.52;99331.63;4993760;28;96791;-72
2021/03/14 03:25:23;;;;;;;6.03;5.63;;;;;;;3.75;42.15;99340.25;4990765;28;97398;-72
2021/03/14 03:27:50;;;;;;;5.40;4.97;;;;;;;3.71;42.24;99356.81;5007115;28;97828;-73
2021/03/14 03:30:19;;;;;;;4.88;4.60;;;;;;;3.66;42.54;99368.06;4976381;28;98711;-73
2021/03/14 03:32:47;;;;;;;4.85;4.55;;;;;;;3.58;42.44;99378.34;4976398;28;96977;-72
2021/03/14 03:35:17;;;;;;;4.45;4.25;;;;;;;3.52;42.88;99372.03;4975236;28;97349;-73
2021/03/14 03:37:45;;;;;;;4.28;4.07;;;;;;;3.48;42.12;99375.44;4991843;28;99953;-73
2021/03/14 03:40:15;;;;;;;5.07;4.57;;;;;;;3.45;42.93;99370.09;4978620;28;97596;-73
2021/03/14 03:42:47;;;;;;;4.78;4.47;;;;;;;3.44;43.13;99369.19;4985151;28;97402;-73
2021/03/14 03:45:15;;;;;;;5.10;4.80;;;;;;;3.44;42.47;99376.22;4975496;28;97014;-73
2021/03/14 03:47:43;;;;;;;5.35;5.03;;;;;;;3.39;42.89;99376.06;4977272;28;98196;-72
2021/03/14 03:50:13;;;;;;;5.43;5.03;;;;;;;3.37;43.09;99398.78;4958691;28;99515;-73
2021/03/14 03:52:42;;;;;;;5.68;5.38;;;;;;;3.39;42.25;99410.25;4978938;28;97033;-73
2021/03/14 03:55:11;;;;;;;6.22;5.78;;;;;;;3.37;43.11;99409.31;5012750;28;98915;-72
2021/03/14 03:57:39;;;;;;;5.43;5.10;;;;;;;3.35;43.02;99399.63;4961580;28;99063;-73
2021/03/14 04:00:08;;;;;;;5.80;5.40;;;;;;;3.34;42.61;99411.88;4976535;28;100747;-72
2021/03/14 04:02:37;;;;;;;5.63;5.25;;;;;;;3.28;42.88;99406.41;4975667;28;96755;-74
2021/03/14 04:05:06;;;;;;;5.75;5.38;;;;;;;3.24;42.99;99404.53;4961714;28;98398;-74
2021/03/14 04:07:35;;;;;;;6.85;6.25;;;;;;;3.16;43.57;99401.72;4996139;28;98938;-75
2021/03/14 04:10:03;;;;;;;6.28;5.68;;;;;;;3.22;42.95;99416.78;4976769;28;96822;-74
2021/03/14 04:12:31;;;;;;;6.45;6.03;;;;;;;3.17;42.66;99421.00;5014020;27;96953;-74
2021/03/14 04:14:59;;;;;;;6.78;6.13;;;;;;;3.15;43.45;99438.44;5014173;28;96886;-71
2021/03/14 04:17:26;;;;;;;7.07;6.55;;;;;;;3.11;42.99;99432.22;5011292;28;99257;-72
2021/03/14 04:19:55;;;;;;;6.82;6.43;;;;;;;3.08;43.71;99433.88;4997384;28;96905;-74
2021/03/14 04:22:26;;;;;;;5.82;5.35;;;;;;;3.08;43.51;99436.50;4980465;28;97451;-74
2021/03/14 04:24:54;;;;;;;6.30;5.68;;;;;;;3.02;43.72;99436.34;4982481;28;97260;-74
2021/03/14 04:27:21;;;;;;;5.57;5.28;;;;;;;3.01;43.98;99429.28;4962148;28;98722;-73
2021/03/14 04:29:50;;;;;;;7.22;5.55;;;;;;;2.97;43.21;99420.41;4982346;28;98850;-73
2021/03/14 04:32:17;;;;;;;6.47;6.07;;;;;;;2.98;43.86;99424.81;5013012;28;97035;-74
2021/03/14 04:34:46;;;;;;;6.20;5.70;;;;;;;3.00;42.92;99436.25;4978449;28;96910;-75
2021/03/14 04:37:13;;;;;;;6.10;5.60;;;;;;;3.02;43.53;99436.34;4978867;28;99984;-74
2021/03/14 04:39:40;;;;;;;6.15;5.75;;;;;;;3.01;43.47;99448.56;5014273;28;96853;-74
2021/03/14 04:42:08;;;;;;;6.38;5.82;;;;;;;3.02;43.31;99445.09;4982074;28;96944;-74
2021/03/14 04:44:36;;;;;;;6.30;5.80;;;;;;;2.98;43.20;99456.34;4996815;28;96911;-74
2021/03/14 04:47:04;;;;;;;6.75;6.28;;;;;;;2.99;43.32;99452.00;4995075;28;100657;-74
2021/03/14 04:49:33;;;;;;;6.82;6.32;;;;;;;2.95;43.53;99456.25;4963417;28;99226;-74
2021/03/14 04:52:00;;;;;;;7.80;7.30;;;;;;;3.00;43.76;99467.78;4979947;28;97423;-74
2021/03/14 04:54:29;;;;;;;7.28;6.68;;;;;;;3.03;43.70;99475.78;4997545;28;96863;-74
2021/03/14 04:56:58;;;;;;;7.72;7.00;;;;;;;3.02;43.72;99481.00;4980795;28;100050;-74
2021/03/14 04:59:26;;;;;;;7.43;6.90;;;;;;;3.06;44.02;99506.50;4996776;28;98421;-73
2021/03/14 05:01:55;;;;;;;7.55;6.88;;;;;;;3.06;44.08;99490.75;4970175;28;96979;-74
2021/03/14 05:04:24;;;;;;;7.00;6.15;;;;;;;3.02;44.32;99494.16;4973231;28;96826;-73
2021/03/14 05:06:52;;;;;;;6.72;6.38;;;;;;;3.00;43.87;99496.69;5009149;27;100043;-73
2021/03/14 05:09:19;;;;;;;6.95;6.50;;;;;;;3.00;44.09;99495.84;4979207;28;98098;-73
2021/03/14 05:11:47;;;;;;;5.30;4.95;;;;;;;2.98;44.03;99505.41;4973134;28;96917;-73
2021/03/14 05:14:14;;;;;;;4.75;4.55;;;;;;;2.95;44.36;99519.31;4991218;28;97367;-73
2021/03/14 05:16:42;;;;;;;5.28;5.00;;;;;;;2.89;45.01;99528.75;4971659;28;100533;-72
2021/03/14 05:19:10;;;;;;;5.20;4.70;;;;;;;2.78;45.01;99533.69;4978216;28;99721;-73
2021/03/14 05:21:56;;;;;;;5.18;4.88;;;;;;;2.67;44.84;99537.69;4972175;28;96855;-73
2021/03/14 05:24:23;;;;;;;4.57;4.30;;;;;;;2.61;44.73;99541.84;4973172;28;96865;-72
2021/03/14 05:26:50;;;;;;;4.60;4.22;;;;;;;2.54;44.38;99531.97;4973826;28;100354;-74
2021/03/14 05:29:17;;;;;;;4.20;4.00;;;;;;;2.44;44.82;99543.03;5005938;28;100542;-72
2021/03/14 05:31:44;;;;;;;5.15;3.92;;;;;;;2.45;44.77;99548.31;4973867;28;96826;-72
2021/03/14 05:34:15;;;;;;;4.45;4.15;;;;;;;2.43;45.13;99559.59;4970753;28;97232;-72
2021/03/14 05:36:43;;;;;;;4.15;3.95;;;;;;;2.39;45.00;99560.31;5008527;28;97793;-72
2021/03/14 05:39:28;;;;;;;4.75;4.43;;;;;;;2.37;45.46;99576.03;4998330;28;97712;-73
2021/03/14 05:41:57;;;;;;;4.20;4.00;;;;;;;2.34;45.62;99594.31;4958224;28;97869;-72
2021/03/14 05:44:24;;;;;;;4.22;4.03;;;;;;;2.39;44.52;99576.06;4979007;28;96978;-73
2021/03/14 05:46:50;;;;;;;4.30;4.20;;;;;;;2.34;44.76;99567.16;4958670;28;97967;-73
2021/03/14 05:49:36;;;;;;;3.97;3.88;;;;;;;2.39;44.44;99565.56;5006989;28;98902;-73
2021/03/14 05:52:19;;;;;;;4.43;4.22;;;;;;;2.44;44.54;99591.16;4966987;28;96894;-73
2021/03/14 05:54:47;;;;;;;4.70;4.50;;;;;;;2.48;44.27;99592.13;4988406;28;96896;-73
2021/03/14 05:57:17;;;;;;;4.63;4.38;;;;;;;2.46;44.89;99594.72;4969554;28;96954;-73
2021/03/14 05:59:45;;;;;;;4.32;3.92;;;;;;;2.46;44.78;99612.19;4956334;28;98447;-73
2021/03/14 06:02:12;;;;;;;4.78;4.40;;;;;;;2.50;45.12;99617.63;4977786;28;96830;-73
2021/03/14 06:04:39;;;;;;;4.55;4.25;;;;;;;2.43;44.77;99604.22;4986686;28;96817;-73
2021/03/14 06:07:08;;;;;;;4.03;3.92;;;;;;;2.45;45.19;99605.16;5009447;28;98458;-73
2021/03/14 06:09:35;;;;;;;4.15;3.92;;;;;;;2.44;44.50;99614.75;4971642;28;98033;-73
2021/03/14 06:12:04;;;;;;;4.38;4.18;;;;;;;2.49;44.55;99604.44;4974124;28;96715;-73
2021/03/14 06:14:33;;;;;;;3.70;3.60;;;;;;;2.52;44.66;99615.03;4946979;28;96896;-73
2021/03/14 06:17:01;;;;;;;4.28;4.15;;;;;;;2.58;44.90;99623.13;4972027;28;100164;-74
2021/03/14 06:19:29;;;;;;;5.25;5.05;;;;;;;2.60;44.53;99637.22;4969855;28;97662;-74
2021/03/14 06:22:20;;;;;;;4.55;4.28;;;;;;;2.58;46.18;99636.25;4977110;28;97143;-74
2021/03/14 06:24:48;;;;;;;4.75;4.53;;;;;;;2.64;44.52;99636.44;4974012;28;96761;-75
2021/03/14 06:27:33;;;;;;;3.88;3.78;;;;;;;2.63;45.51;99639.94;4976628;28;99464;-74
2021/03/14 06:30:01;;;;;;;4.10;4.00;;;;;;;2.66;43.88;99646.19;4958210;28;99680;-75
2021/03/14 06:32:28;;;;;;;4.05;3.95;;;;;;;2.70;44.48;99660.31;4990976;28;96901;-75
2021/03/14 06:35:10;;;;;;;4.35;4.15;;;;;;;2.72;45.46;99656.91;4975060;28;97277;-75
2021/03/14 06:37:40;;;;;;;4.40;4.20;;;;;;;2.76;43.88;99661.44;4980707;28;98092;-74
2021/03/14 06:40:12;;;;;;;3.65;3.55;;;;;;;2.82;43.95;99666.88;5008946;28;98763;-73
2021/03/14 06:42:40;;;;;;;3.97;3.88;;;;;;;2.88;43.91;99689.81;4974364;28;96839;-74
2021/03/14 06:45:09;;;;;;;3.83;3.58;;;;;;;2.90;44.35;99689.06;4975771;28;97157;-74
2021/03/14 06:47:37;;;;;;;3.60;3.28;;;;;;;2.88;43.63;99697.72;4976109;28;98903;-74
2021/03/14 06:50:06;;;;;;;4.28;4.00;;;;;;;2.95;44.07;99697.06;5006901;28;99408;-74
2021/03/14 06:52:36;;;;;;;3.67;3.58;;;;;;;2.93;43.69;99714.56;5013064;27;96848;-75
2021/03/14 06:55:03;;;;;;;3.80;3.55;;;;;;;2.98;43.89;99707.72;4965056;28;96859;-74
2021/03/14 06:57:30;;;;;;;4.15;3.83;;;;;;;3.00;44.95;99727.06;4977291;28;98139;-74
2021/03/14 06:59:59;;;;;;;4.10;3.90;;;;;;;3.00;44.07;99717.41;4978549;28;96796;-74
2021/03/14 07:02:29;;;;;;;4.28;3.92;;;;;;;3.06;44.01;99732.50;4994762;28;96997;-73
2021/03/14 07:04:57;;;;;;;4.50;3.58;;;;;;;3.04;43.67;99742.97;4979634;28;96794;-73
2021/03/14 07:07:26;;;;;;;5.10;4.60;;;;;;;3.05;43.91;99763.16;4975944;28;101518;-74
2021/03/14 07:09:59;;;;;;;4.30;3.90;;;;;;;3.06;44.06;99771.91;4976348;28;97618;-74
2021/03/14 07:12:30;;;;;;;4.43;4.07;;;;;;;3.09;44.40;99780.78;4952999;28;97527;-74
2021/03/14 07:15:17;;;;;;;5.10;4.13;;;;;;;3.05;44.70;99773.66;4974038;28;97534;-73
2021/03/14 07:17:50;;;;;;;4.45;4.07;;;;;;;3.06;44.79;99769.28;4986666;28;99267;-74
2021/03/14 07:20:20;;;;;;;5.32;4.07;;;;;;;3.10;45.15;99779.97;4950963;28;100170;-73
2021/03/14 07:22:56;;;;;;;4.07;3.83;;;;;;;3.13;45.35;99798.47;4988439;28;97162;-72
2021/03/14 07:25:24;;;;;;;3.88;3.67;;;;;;;3.18;44.19;99796.00;4975194;28;97747;-74
2021/03/14 07:27:51;;;;;;;4.95;4.55;;;;;;;3.18;44.55;99796.00;4956566;28;98861;-74
2021/03/14 07:30:21;;;;;;;4.07;3.88;;;;;;;3.18;44.49;99807.41;4985713;28;97064;-74
2021/03/14 07:32:49;;;;;;;4.60;4.38;;;;;;;3.21;44.02;99807.53;4988810;28;97214;-74
2021/03/14 07:35:35;;;;;;;4.90;4.65;;;;;;;3.20;43.91;99807.47;4972922;28;96895;-74
2021/03/14 07:38:02;;;;;;;4.80;4.45;;;;;;;3.24;44.19;99814.59;4975824;28;98908;-74
2021/03/14 07:40:30;;;;;;;4.72;4.45;;;;;;;3.30;44.33;99822.72;4971240;28;98481;-72
2021/03/14 07:42:58;;;;;;;5.28;4.97;;;;;;;3.35;43.85;99830.78;4976013;28;97213;-73
2021/03/14 07:45:27;;;;;;;4.55;4.30;;;;;;;3.36;44.03;99835.19;4978982;28;97004;-73
2021/03/14 07:47:54;;;;;;;4.20;3.95;;;;;;;3.45;44.13;99838.13;5010907;27;97886;-73
2021/03/14 07:50:25;;;;;;;3.50;3.40;;;;;;;3.48;44.10;99844.38;4975176;28;96982;-73
2021/03/14 07:53:01;;;;;;;4.20;4.00;;;;;;;3.50;44.04;99862.84;5007912;28;96885;-73
2021/03/14 07:55:29;;;;;;;3.83;3.72;;;;;;;3.53;43.23;99853.31;5013536;27;96816;-74
2021/03/14 07:57:56;;;;;;;3.75;3.47;;;;;;;3.56;43.66;99857.78;5006539;28;97129;-74
2021/03/14 08:00:29;;;;;;;4.13;3.83;;;;;;;3.60;43.75;99867.59;4974743;28;98688;-74
2021/03/14 08:02:58;;;;;;;5.05;4.70;;;;;;;3.55;43.38;99858.66;4974228;28;96778;-74
2021/03/14 08:05:47;;;;;;;4.90;4.00;;;;;;;3.55;44.52;99867.41;4976014;28;97051;-74
2021/03/14 08:08:45;;;;;;;4.35;3.78;;;;;;;3.57;43.93;99873.63;4993729;28;98541;-74
2021/03/14 08:11:26;;;;;;;12.15;6.75;;;;;;;3.60;45.13;99892.16;4974209;28;96885;-74
2021/03/14 08:13:53;;;;;;;5.13;4.05;;;;;;;3.66;43.84;99884.50;5007686;28;98018;-74
2021/03/14 08:16:26;;;;;;;3.90;3.70;;;;;;;3.71;43.27;99889.91;4959486;28;96833;-74
2021/03/14 08:18:54;;;;;;;5.25;4.75;;;;;;;3.73;43.43;99899.63;4971372;28;99641;-73
2021/03/14 08:21:39;;;;;;;4.50;4.20;;;;;;;3.78;44.07;99908.59;4974101;28;97748;-74
2021/03/14 08:24:16;;;;;;;4.35;4.13;;;;;;;3.86;43.03;99909.75;4973912;28;97996;-72
2021/03/14 08:26:44;;;;;;;5.25;4.20;;;;;;;3.83;43.34;99921.91;5010060;28;97967;-73
2021/03/14 08:29:16;;;;;;;4.13;3.92;;;;;;;3.86;43.11;99927.28;4990654;28;98133;-74
2021/03/14 08:31:50;;;;;;;4.10;3.75;;;;;;;3.92;43.62;99933.66;5006076;27;98863;-72
2021/03/14 08:34:43;;;;;;;4.20;3.90;;;;;;;3.98;43.94;99939.13;4955111;28;96726;-73
2021/03/14 08:37:21;;;;;;;4.85;3.95;;;;;;;4.01;43.16;99943.56;4993830;28;97633;-72
2021/03/14 08:40:07;;;;;;;5.38;4.82;;;;;;;4.02;43.43;99950.66;4978010;28;100188;-72
2021/03/14 08:42:54;;;;;;;4.15;3.80;;;;;;;4.05;43.65;99953.38;5003680;27;97827;-73
2021/03/14 08:45:27;;;;;;;4.90;4.50;;;;;;;4.12;43.43;99958.00;4989320;28;97282;-72
2021/03/14 08:48:20;;;;;;;4.32;4.03;;;;;;;4.26;43.08;99967.28;4992145;28;97520;-72
2021/03/14 08:50:50;;;;;;;5.07;4.57;;;;;;;4.32;43.26;99967.47;4988329;28;100316;-73
2021/03/14 08:53:40;;;;;;;5.88;5.03;;;;;;;4.39;42.71;99971.19;4995137;28;98531;-75
2021/03/14 08:56:16;;;;;;;5.22;4.90;;;;;;;4.39;42.96;99979.09;4972414;28;96770;-72
2021/03/14 08:59:04;;;;;;;5.85;5.40;;;;;;;4.39;43.80;99973.84;4987311;28;97026;-73
2021/03/14 09:01:31;;;;;;;5.80;5.22;;;;;;;4.44;43.06;99980.16;4955904;28;97735;-73
2021/03/14 09:04:12;;;;;;;5.35;4.90;;;;;;;4.47;42.86;99981.13;4955131;28;96843;-73
2021/03/14 09:06:39;;;;;;;6.38;5.20;;;;;;;4.51;43.27;99987.41;4954983;28;96897;-73
2021/03/14 09:09:16;;;;;;;5.95;5.55;;;;;;;4.57;43.11;100011.31;4972532;28;98523;-74
2021/03/14 09:11:52;;;;;;;6.35;5.90;;;;;;;4.60;42.98;99991.22;4972798;28;97944;-73
2021/03/14 09:14:32;;;;;;;7.78;7.07;;;;;;;4.59;43.23;99988.56;4965374;28;97812;-73
2021/03/14 09:17:04;;;;;;;9.48;6.85;;;;;;;4.60;43.25;99992.97;4983370;28;97190;-72
2021/03/14 09:19:35;;;;;;;8.10;7.35;;;;;;;4.69;43.38;99993.25;4985418;28;98268;-74
2021/03/14 09:22:04;;;;;;;7.95;7.22;;;;;;;4.73;43.04;100009.22;4955476;28;97028;-73
2021/03/14 09:24:39;;;;;;;8.80;7.40;;;;;;;4.77;42.91;100015.50;4984888;28;100260;-74
2021/03/14 09:27:10;;;;;;;12.93;7.80;;;;;;;4.78;42.85;100020.81;4971605;28;97391;-72
2021/03/14 09:29:46;;;;;;;9.35;8.13;;;;;;;4.76;43.27;100019.84;4949680;28;97186;-73
2021/03/14 09:32:26;;;;;;;14.13;8.90;;;;;;;4.80;43.21;100016.47;4980811;28;100933;-74
2021/03/14 09:35:25;;;;;;;10.02;8.10;;;;;;;4.83;44.30;100034.09;4948977;28;98976;-74
2021/03/14 09:37:58;;;;;;;10.95;8.48;;;;;;;4.88;42.68;100030.78;5001025;28;97529;-74
2021/03/14 09:40:35;;;;;;;11.93;9.18;;;;;;;4.90;43.12;100044.91;4949546;28;97180;-74
2021/03/14 09:43:09;;;;;;;10.55;7.15;;;;;;;4.92;43.12;100039.66;4983336;28;97289;-73
2021/03/14 09:45:41;;;;;;;10.00;7.18;;;;;;;4.87;42.95;100033.38;4982719;28;98156;-73
2021/03/14 09:48:11;;;;;;;7.40;6.72;;;;;;;4.86;43.00;100048.31;4979154;28;98069;-74
2021/03/14 09:50:50;;;;;;;7.60;6.90;;;;;;;4.88;43.16;100065.03;4971350;28;97263;-74
2021/03/14 09:53:22;;;;;;;8.95;6.60;;;;;;;4.90;42.89;100078.31;4979375;28;100020;-74
2021/03/14 09:55:52;;;;;;;7.82;6.72;;;;;;;4.91;42.87;100057.25;4947516;28;100123;-74
2021/03/14 09:58:21;;;;;;;9.63;6.50;;;;;;;4.96;42.84;100060.03;4965515;28;97227;-73
2021/03/14 10:00:53;;;;;;;8.30;6.68;;;;;;;5.02;42.87;100063.81;4969327;28;96977;-73
2021/03/14 10:03:22;;;;;;;8.85;6.43;;;;;;;5.05;42.96;100066.53;4947099;28;97546;-74
2021/03/14 10:05:57;;;;;;;7.80;6.97;;;;;;;5.06;42.76;100093.78;4953110;28;100105;-73
2021/03/14 10:08:42;;;;;;;9.18;7.97;;;;;;;5.09;42.55;100078.06;4969591;28;96886;-74
2021/03/14 10:11:15;;;;;;;10.43;7.18;;;;;;;5.15;42.62;100088.81;4970018;28;98020;-72
2021/03/14 10:13:52;;;;;;;8.38;6.47;;;;;;;5.19;42.65;100090.72;4988099;28;99527;-73
2021/03/14 10:16:22;;;;;;;8.77;5.93;;;;;;;5.25;42.44;100084.72;4981417;28;96865;-73
2021/03/14 10:18:58;;;;;;;8.98;6.15;;;;;;;5.27;42.61;100099.72;4986595;28;96981;-74
2021/03/14 10:21:28;;;;;;;8.27;5.75;;;;;;;5.31;42.34;100092.81;4953796;28;97514;-74
2021/03/14 10:24:24;;;;;;;8.88;6.88;;;;;;;5.34;42.69;100107.00;4969359;28;97259;-74
2021/03/14 10:27:08;;;;;;;8.73;6.85;;;;;;;5.35;42.10;100107.88;4985636;28;97221;-73
2021/03/14 10:29:44;;;;;;;7.82;6.15;;;;;;;5.36;42.32;100114.97;4962733;28;96703;-73
2021/03/14 10:32:49;;;;;;;10.75;6.78;;;;;;;5.33;42.36;100121.03;4947189;28;97663;-72
2021/03/14 10:35:23;;;;;;;7.13;6.47;;;;;;;5.38;42.24;100108.88;4927660;28;98713;-73
2021/03/14 10:37:56;;;;;;;9.02;5.63;;;;;;;5.36;42.26;100118.47;4941898;28;97517;-73
2021/03/14 10:40:28;;;;;;;10.02;6.65;;;;;;;5.34;42.14;100129.84;5001192;28;97077;-74
2021/03/14 10:43:16;;;;;;;7.47;5.97;;;;;;;5.33;42.60;100133.31;4947419;28;97394;-73
2021/03/14 10:45:46;;;;;;;8.05;5.43;;;;;;;5.32;42.42;100134.19;4967591;28;98464;-72
2021/03/14 10:48:17;;;;;;;6.13;5.63;;;;;;;5.26;42.52;100129.59;4970186;28;98757;-74
2021/03/14 10:50:47;;;;;;;9.18;5.60;;;;;;;5.30;42.49;100139.41;4976702;28;97095;-74
2021/03/14 10:53:23;;;;;;;5.63;5.05;;;;;;;5.36;42.33;100142.22;4951539;28;97962;-73
2021/03/14 10:56:12;;;;;;;7.75;5.50;;;;;;;5.39;42.15;100150.25;4999817;28;97695;-74
2021/03/14 10:58:45;;;;;;;10.93;6.55;;;;;;;5.43;42.04;100160.03;4978310;28;97654;-72
2021/03/14 11:01:30;;;;;;;5.25;4.75;;;;;;;5.47;42.11;100158.38;4982210;28;98337;-73
2021/03/14 11:04:07;;;;;;;6.40;5.22;;;;;;;5.48;41.94;100161.09;4944545;28;96929;-73
2021/03/14 11:06:38;;;;;;;5.60;5.05;;;;;;;5.47;41.62;100167.22;4996584;28;97919;-73
2021/03/14 11:09:19;;;;;;;10.32;5.10;;;;;;;5.42;42.14;100162.63;4948582;28;99349;-74
2021/03/14 11:11:49;;;;;;;7.13;4.80;;;;;;;5.45;42.14;100168.03;4978407;28;97117;-74
2021/03/14 11:14:35;;;;;;;5.65;5.20;;;;;;;5.48;41.47;100184.84;4976404;28;97324;-75
2021/03/14 11:17:22;;;;;;;4.93;4.63;;;;;;;5.51;42.00;100190.22;4952719;28;97859;-75
2021/03/14 11:23:01;;;;;;;5.35;4.60;;;;;;;5.54;41.61;100205.25;4970818;28;97363;-73
2021/03/14 11:25:30;;;;;;;6.05;5.40;;;;;;;5.46;41.88;100206.75;4961835;28;97263;-74
2021/03/14 11:27:59;;;;;;;5.60;4.97;;;;;;;5.45;41.96;100202.31;4951331;28;99727;-74
2021/03/14 11:30:29;;;;;;;6.13;4.72;;;;;;;5.48;41.94;100210.34;4977046;28;99631;-73
2021/03/14 11:32:58;;;;;;;5.13;4.70;;;;;;;5.46;41.91;100210.28;4950160;28;97139;-73
2021/03/14 11:35:35;;;;;;;5.50;5.10;;;;;;;5.40;42.35;100218.00;4953708;28;97455;-73
2021/03/14 11:38:21;;;;;;;5.05;4.70;;;;;;;5.39;42.55;100216.22;4961679;28;99670;-73
2021/03/14 11:41:17;;;;;;;5.05;4.65;;;;;;;5.26;42.44;100227.19;5002146;27;98048;-74
2021/03/14 11:43:55;;;;;;;4.97;4.45;;;;;;;5.12;42.71;100226.72;4988957;28;97031;-74
2021/03/14 11:46:25;;;;;;;5.32;4.72;;;;;;;5.03;42.89;100221.13;4988913;28;97269;-73
2021/03/14 11:49:02;;;;;;;4.57;4.30;;;;;;;4.96;43.28;100221.75;5000033;27;96988;-72
2021/03/14 11:51:29;;;;;;;4.05;3.85;;;;;;;4.94;43.05;100219.88;4954011;28;100186;-73
2021/03/14 11:54:06;;;;;;;3.78;3.40;;;;;;;4.91;43.03;100225.06;4957357;28;96592;-73
2021/03/14 11:56:51;;;;;;;3.15;3.00;;;;;;;4.92;43.03;100224.19;4950692;28;97072;-73
2021/03/14 11:59:21;;;;;;;3.47;2.90;;;;;;;4.93;42.56;100229.56;4955242;28;97091;-72
2021/03/14 12:01:58;;;;;;;3.10;2.90;;;;;;;4.96;42.67;100234.00;4947681;28;98643;-73
2021/03/14 12:04:33;;;;;;;3.45;3.20;;;;;;;5.03;42.55;100236.06;5000752;28;96975;-73